Hovedside
METAR-TAF:

METAR-TAF

Lufthavner :

Svalbard lufthavn. Longyear

Longyearbyen, Norge

breddegrad: 78-15N, lengdegrad: 015-28E, høyde over havet: 2 m

Gjeldene værobservasjon

Denne rapporten ble laget for 1 time og 3 minutter siden, klokken 18:50 UTC
Vind 7 kt fra Vest-sørvest
Temperatur 8°C
Luftfuktighet 71%
Trykk 1010 hPa
Sikt 10 km eller mer
Brutte skyer i en høyde av 4100 ft

METAR: ENSB 161850Z 25007KT 9999 BKN041 08/03 Q1010 RMK WIND 1400FT 36003KT

Tid: 21:53 (19:53 UTC)

Varsel

Varsel gyldig fra 16. klokken 18 UTC til 17. klokken 18 UTC
Vind 8 kt fra Vest-sørvest
Sikt 10 km eller mer
Få skyer i en høyde av 1500 ft
Spredte skyer i en høyde av 5000 ft
Blir
fra 17. klokken 00 UTC til 17. klokken 03 UTC
Vind 10 kt fra Øst-sørøst
Midlertidig
fra 17. klokken 09 UTC til 17. klokken 18 UTC
Vind 20 kt fra Øst-sørøst med vindkast opp mot 30 kt

TAF: ENSB 1618/1718 25008KT 9999 FEW015 SCT050 BECMG 1700/1703 12010KT TEMPO 1709/1718 12020G30KT

Værobservasjoner og værvarsel for over 4000 flyplasser (METAR- og TAF-rapporter).

Tilgjengelige stasjoner er representert av de røde og gule prikkene på kartet.

Hold musepekeren over prikken for å se navnet på stasjonen.

Klikk så for å se værobservasjoner og -varsler.

For å forandre kartet kan du klikke på den grønne knappen med svart kryss for å zoome inn, på den grønne knappen med strek for å zoome ut, eller på de grønne pilene for å se tilstøtende kart.


METAR-TAF: